sensor_id;sensor_type;location;lat;lon;timestamp;temperature;humidity
69944;DHT22;57257;48.408;-4.498;2023-07-30T00:01:38;18.53;67.55
69944;DHT22;57257;48.408;-4.498;2023-07-30T00:04:03;18.52;67.58
69944;DHT22;57257;48.408;-4.498;2023-07-30T00:06:29;18.53;67.48
69944;DHT22;57257;48.408;-4.498;2023-07-30T00:08:54;18.51;67.52
69944;DHT22;57257;48.408;-4.498;2023-07-30T00:11:20;18.48;67.48
69944;DHT22;57257;48.408;-4.498;2023-07-30T00:13:45;18.48;67.41
69944;DHT22;57257;48.408;-4.498;2023-07-30T00:16:10;18.47;67.47
69944;DHT22;57257;48.408;-4.498;2023-07-30T00:18:36;18.47;67.46
69944;DHT22;57257;48.408;-4.498;2023-07-30T00:21:01;18.45;67.53
69944;DHT22;57257;48.408;-4.498;2023-07-30T00:23:27;18.47;67.52
69944;DHT22;57257;48.408;-4.498;2023-07-30T00:25:52;18.47;67.51
69944;DHT22;57257;48.408;-4.498;2023-07-30T00:28:17;18.49;67.52
69944;DHT22;57257;48.408;-4.498;2023-07-30T00:30:43;18.51;67.50
69944;DHT22;57257;48.408;-4.498;2023-07-30T00:33:08;18.51;67.47
69944;DHT22;57257;48.408;-4.498;2023-07-30T00:35:33;18.49;67.41
69944;DHT22;57257;48.408;-4.498;2023-07-30T00:37:59;18.53;67.38
69944;DHT22;57257;48.408;-4.498;2023-07-30T00:40:24;18.49;67.39
69944;DHT22;57257;48.408;-4.498;2023-07-30T00:42:50;18.47;67.39
69944;DHT22;57257;48.408;-4.498;2023-07-30T00:45:15;18.48;67.39
69944;DHT22;57257;48.408;-4.498;2023-07-30T00:47:41;18.45;67.48
69944;DHT22;57257;48.408;-4.498;2023-07-30T00:50:07;18.48;67.40
69944;DHT22;57257;48.408;-4.498;2023-07-30T00:52:33;18.47;67.44
69944;DHT22;57257;48.408;-4.498;2023-07-30T00:55:02;18.48;67.46
69944;DHT22;57257;48.408;-4.498;2023-07-30T00:57:28;18.47;67.55
69944;DHT22;57257;48.408;-4.498;2023-07-30T00:59:54;18.49;67.61
69944;DHT22;57257;48.408;-4.498;2023-07-30T01:02:21;18.49;67.46
69944;DHT22;57257;48.408;-4.498;2023-07-30T01:04:46;18.49;67.55
69944;DHT22;57257;48.408;-4.498;2023-07-30T01:07:12;18.49;67.68
69944;DHT22;57257;48.408;-4.498;2023-07-30T01:09:37;18.51;67.67
69944;DHT22;57257;48.408;-4.498;2023-07-30T01:12:04;18.55;67.75
69944;DHT22;57257;48.408;-4.498;2023-07-30T01:14:31;18.58;67.59
69944;DHT22;57257;48.408;-4.498;2023-07-30T01:16:57;18.59;67.59
69944;DHT22;57257;48.408;-4.498;2023-07-30T01:19:23;18.56;67.64
69944;DHT22;57257;48.408;-4.498;2023-07-30T01:21:48;18.59;67.57
69944;DHT22;57257;48.408;-4.498;2023-07-30T01:24:13;18.59;67.77
69944;DHT22;57257;48.408;-4.498;2023-07-30T01:29:16;18.62;67.72
69944;DHT22;57257;48.408;-4.498;2023-07-30T01:31:47;18.62;67.69
69944;DHT22;57257;48.408;-4.498;2023-07-30T01:34:16;18.61;67.70
69944;DHT22;57257;48.408;-4.498;2023-07-30T01:36:43;18.58;67.78
69944;DHT22;57257;48.408;-4.498;2023-07-30T01:39:09;18.59;67.86
69944;DHT22;57257;48.408;-4.498;2023-07-30T01:41:35;18.58;67.83
69944;DHT22;57257;48.408;-4.498;2023-07-30T01:44:01;18.55;67.86
69944;DHT22;57257;48.408;-4.498;2023-07-30T01:46:26;18.55;67.83
69944;DHT22;57257;48.408;-4.498;2023-07-30T01:48:51;18.49;68.00
69944;DHT22;57257;48.408;-4.498;2023-07-30T01:51:17;18.52;67.97
69944;DHT22;57257;48.408;-4.498;2023-07-30T01:53:42;18.48;67.95
69944;DHT22;57257;48.408;-4.498;2023-07-30T01:56:07;18.47;67.97
69944;DHT22;57257;48.408;-4.498;2023-07-30T01:58:33;18.48;68.02
69944;DHT22;57257;48.408;-4.498;2023-07-30T02:00:58;18.47;68.10
69944;DHT22;57257;48.408;-4.498;2023-07-30T02:03:24;18.45;68.07
69944;DHT22;57257;48.408;-4.498;2023-07-30T02:05:50;18.47;68.05
69944;DHT22;57257;48.408;-4.498;2023-07-30T02:08:15;18.44;68.03
69944;DHT22;57257;48.408;-4.498;2023-07-30T02:10:41;18.44;68.14
69944;DHT22;57257;48.408;-4.498;2023-07-30T02:13:06;18.45;68.17
69944;DHT22;57257;48.408;-4.498;2023-07-30T02:15:32;18.47;68.07
69944;DHT22;57257;48.408;-4.498;2023-07-30T02:17:57;18.47;68.08
69944;DHT22;57257;48.408;-4.498;2023-07-30T02:20:23;18.45;68.15
69944;DHT22;57257;48.408;-4.498;2023-07-30T02:22:48;18.47;68.17
69944;DHT22;57257;48.408;-4.498;2023-07-30T02:25:13;18.47;68.23
69944;DHT22;57257;48.408;-4.498;2023-07-30T02:27:39;18.48;68.16
69944;DHT22;57257;48.408;-4.498;2023-07-30T02:30:05;18.48;68.02
69944;DHT22;57257;48.408;-4.498;2023-07-30T02:32:30;18.44;68.24
69944;DHT22;57257;48.408;-4.498;2023-07-30T02:34:56;18.42;68.30
69944;DHT22;57257;48.408;-4.498;2023-07-30T02:37:21;18.41;68.26
69944;DHT22;57257;48.408;-4.498;2023-07-30T02:39:46;18.41;68.20
69944;DHT22;57257;48.408;-4.498;2023-07-30T02:42:12;18.34;68.40
69944;DHT22;57257;48.408;-4.498;2023-07-30T02:44:37;18.31;68.51
69944;DHT22;57257;48.408;-4.498;2023-07-30T02:47:03;18.29;68.68
69944;DHT22;57257;48.408;-4.498;2023-07-30T02:49:28;18.28;68.53
69944;DHT22;57257;48.408;-4.498;2023-07-30T02:51:54;18.28;68.71
69944;DHT22;57257;48.408;-4.498;2023-07-30T02:54:19;18.28;68.77
69944;DHT22;57257;48.408;-4.498;2023-07-30T02:56:47;18.32;68.59
69944;DHT22;57257;48.408;-4.498;2023-07-30T02:59:12;18.31;68.84
69944;DHT22;57257;48.408;-4.498;2023-07-30T03:01:38;18.29;68.71
69944;DHT22;57257;48.408;-4.498;2023-07-30T03:04:04;18.27;68.65
69944;DHT22;57257;48.408;-4.498;2023-07-30T03:06:29;18.24;68.73
69944;DHT22;57257;48.408;-4.498;2023-07-30T03:08:54;18.17;68.81
69944;DHT22;57257;48.408;-4.498;2023-07-30T03:11:22;18.15;68.99
69944;DHT22;57257;48.408;-4.498;2023-07-30T03:13:47;18.15;69.02
69944;DHT22;57257;48.408;-4.498;2023-07-30T03:16:13;18.12;69.04
69944;DHT22;57257;48.408;-4.498;2023-07-30T03:18:39;18.12;68.98
69944;DHT22;57257;48.408;-4.498;2023-07-30T03:21:04;18.05;69.13
69944;DHT22;57257;48.408;-4.498;2023-07-30T03:23:30;18.08;69.12
69944;DHT22;57257;48.408;-4.498;2023-07-30T03:25:55;18.02;69.19
69944;DHT22;57257;48.408;-4.498;2023-07-30T03:28:21;18.04;69.18
69944;DHT22;57257;48.408;-4.498;2023-07-30T03:30:46;18.00;69.21
69944;DHT22;57257;48.408;-4.498;2023-07-30T03:33:11;17.98;69.25
69944;DHT22;57257;48.408;-4.498;2023-07-30T03:35:37;17.97;69.16
69944;DHT22;57257;48.408;-4.498;2023-07-30T03:38:02;17.97;69.16
69944;DHT22;57257;48.408;-4.498;2023-07-30T03:40:29;17.94;69.11
69944;DHT22;57257;48.408;-4.498;2023-07-30T03:42:54;17.93;69.04
69944;DHT22;57257;48.408;-4.498;2023-07-30T03:45:19;17.91;68.99
69944;DHT22;57257;48.408;-4.498;2023-07-30T03:47:45;17.90;68.91
69944;DHT22;57257;48.408;-4.498;2023-07-30T03:50:10;17.86;68.87
69944;DHT22;57257;48.408;-4.498;2023-07-30T03:52:36;17.84;68.94
69944;DHT22;57257;48.408;-4.498;2023-07-30T03:55:01;17.81;69.11
69944;DHT22;57257;48.408;-4.498;2023-07-30T03:57:27;17.81;69.17
69944;DHT22;57257;48.408;-4.498;2023-07-30T03:59:52;17.83;69.07
69944;DHT22;57257;48.408;-4.498;2023-07-30T04:02:17;17.81;69.10
69944;DHT22;57257;48.408;-4.498;2023-07-30T04:04:43;17.81;69.23
69944;DHT22;57257;48.408;-4.498;2023-07-30T04:07:10;17.83;69.38
69944;DHT22;57257;48.408;-4.498;2023-07-30T04:09:35;17.86;69.25
69944;DHT22;57257;48.408;-4.498;2023-07-30T04:12:01;17.86;69.33
69944;DHT22;57257;48.408;-4.498;2023-07-30T04:14:26;17.86;69.34
69944;DHT22;57257;48.408;-4.498;2023-07-30T04:16:52;17.88;69.32
69944;DHT22;57257;48.408;-4.498;2023-07-30T04:19:17;17.86;69.40
69944;DHT22;57257;48.408;-4.498;2023-07-30T04:21:42;17.90;69.51
69944;DHT22;57257;48.408;-4.498;2023-07-30T04:24:08;17.87;69.54
69944;DHT22;57257;48.408;-4.498;2023-07-30T04:26:33;17.94;69.65
69944;DHT22;57257;48.408;-4.498;2023-07-30T04:28:58;17.94;69.68
69944;DHT22;57257;48.408;-4.498;2023-07-30T04:31:24;17.98;69.70
69944;DHT22;57257;48.408;-4.498;2023-07-30T04:33:49;18.00;69.72
69944;DHT22;57257;48.408;-4.498;2023-07-30T04:36:15;18.02;69.83
69944;DHT22;57257;48.408;-4.498;2023-07-30T04:38:40;18.08;69.84
69944;DHT22;57257;48.408;-4.498;2023-07-30T04:41:05;18.07;69.72
69944;DHT22;57257;48.408;-4.498;2023-07-30T04:43:31;18.08;69.86
69944;DHT22;57257;48.408;-4.498;2023-07-30T04:45:56;18.12;69.83
69944;DHT22;57257;48.408;-4.498;2023-07-30T04:48:21;18.12;69.91
69944;DHT22;57257;48.408;-4.498;2023-07-30T04:50:47;18.08;69.94
69944;DHT22;57257;48.408;-4.498;2023-07-30T04:53:12;18.09;70.12
69944;DHT22;57257;48.408;-4.498;2023-07-30T04:55:38;18.09;70.33
69944;DHT22;57257;48.408;-4.498;2023-07-30T04:58:03;18.08;70.31
69944;DHT22;57257;48.408;-4.498;2023-07-30T05:00:29;18.08;70.42
69944;DHT22;57257;48.408;-4.498;2023-07-30T05:02:54;18.11;70.39
69944;DHT22;57257;48.408;-4.498;2023-07-30T05:05:20;18.08;70.55
69944;DHT22;57257;48.408;-4.498;2023-07-30T05:07:45;18.09;70.57
69944;DHT22;57257;48.408;-4.498;2023-07-30T05:10:11;18.08;70.59
69944;DHT22;57257;48.408;-4.498;2023-07-30T05:12:37;18.12;70.73
69944;DHT22;57257;48.408;-4.498;2023-07-30T05:15:03;18.14;70.71
69944;DHT22;57257;48.408;-4.498;2023-07-30T05:17:28;18.17;70.75
69944;DHT22;57257;48.408;-4.498;2023-07-30T05:19:54;18.15;70.84
69944;DHT22;57257;48.408;-4.498;2023-07-30T05:22:19;18.14;70.80
69944;DHT22;57257;48.408;-4.498;2023-07-30T05:24:45;18.18;70.94
69944;DHT22;57257;48.408;-4.498;2023-07-30T05:27:10;18.22;71.02
69944;DHT22;57257;48.408;-4.498;2023-07-30T05:29:36;18.25;70.85
69944;DHT22;57257;48.408;-4.498;2023-07-30T05:32:01;18.28;70.83
69944;DHT22;57257;48.408;-4.498;2023-07-30T05:34:26;18.31;70.78
69944;DHT22;57257;48.408;-4.498;2023-07-30T05:36:52;18.29;70.75
69944;DHT22;57257;48.408;-4.498;2023-07-30T05:39:17;18.29;70.85
69944;DHT22;57257;48.408;-4.498;2023-07-30T05:41:42;18.32;70.86
69944;DHT22;57257;48.408;-4.498;2023-07-30T05:44:08;18.34;70.81
69944;DHT22;57257;48.408;-4.498;2023-07-30T05:46:33;18.38;70.86
69944;DHT22;57257;48.408;-4.498;2023-07-30T05:48:59;18.35;70.89
69944;DHT22;57257;48.408;-4.498;2023-07-30T05:51:24;18.38;70.88
69944;DHT22;57257;48.408;-4.498;2023-07-30T05:53:49;18.37;70.84
69944;DHT22;57257;48.408;-4.498;2023-07-30T05:56:15;18.42;70.82
69944;DHT22;57257;48.408;-4.498;2023-07-30T05:58:43;18.39;70.74
69944;DHT22;57257;48.408;-4.498;2023-07-30T06:01:09;18.39;70.95
69944;DHT22;57257;48.408;-4.498;2023-07-30T06:03:34;18.44;71.10
69944;DHT22;57257;48.408;-4.498;2023-07-30T06:06:01;18.49;70.95
69944;DHT22;57257;48.408;-4.498;2023-07-30T06:08:26;18.51;70.83
69944;DHT22;57257;48.408;-4.498;2023-07-30T06:10:52;18.52;70.86
69944;DHT22;57257;48.408;-4.498;2023-07-30T06:13:17;18.56;70.96
69944;DHT22;57257;48.408;-4.498;2023-07-30T06:15:43;18.58;70.81
69944;DHT22;57257;48.408;-4.498;2023-07-30T06:18:09;18.58;70.97
69944;DHT22;57257;48.408;-4.498;2023-07-30T06:20:34;18.56;71.00
69944;DHT22;57257;48.408;-4.498;2023-07-30T06:23:00;18.51;71.12
69944;DHT22;57257;48.408;-4.498;2023-07-30T06:25:25;18.51;71.27
69944;DHT22;57257;48.408;-4.498;2023-07-30T06:27:51;18.51;71.63
69944;DHT22;57257;48.408;-4.498;2023-07-30T06:30:16;18.53;71.82
69944;DHT22;57257;48.408;-4.498;2023-07-30T06:32:42;18.58;71.96
69944;DHT22;57257;48.408;-4.498;2023-07-30T06:35:07;18.59;71.88
69944;DHT22;57257;48.408;-4.498;2023-07-30T06:37:33;18.59;72.10
69944;DHT22;57257;48.408;-4.498;2023-07-30T06:39:59;18.56;72.25
69944;DHT22;57257;48.408;-4.498;2023-07-30T06:42:24;18.58;72.32
69944;DHT22;57257;48.408;-4.498;2023-07-30T06:44:50;18.58;72.50
69944;DHT22;57257;48.408;-4.498;2023-07-30T06:47:15;18.58;73.19
69944;DHT22;57257;48.408;-4.498;2023-07-30T06:49:41;18.59;73.31
69944;DHT22;57257;48.408;-4.498;2023-07-30T06:52:06;18.55;73.10
69944;DHT22;57257;48.408;-4.498;2023-07-30T06:54:32;18.59;73.41
69944;DHT22;57257;48.408;-4.498;2023-07-30T06:56:57;18.59;73.61
69944;DHT22;57257;48.408;-4.498;2023-07-30T06:59:22;18.59;73.53
69944;DHT22;57257;48.408;-4.498;2023-07-30T07:01:48;18.58;74.12
69944;DHT22;57257;48.408;-4.498;2023-07-30T07:04:13;18.61;73.90
69944;DHT22;57257;48.408;-4.498;2023-07-30T07:06:39;18.62;74.23
69944;DHT22;57257;48.408;-4.498;2023-07-30T07:09:04;18.63;74.19
69944;DHT22;57257;48.408;-4.498;2023-07-30T07:11:29;18.63;74.11
69944;DHT22;57257;48.408;-4.498;2023-07-30T07:13:55;18.63;74.28
69944;DHT22;57257;48.408;-4.498;2023-07-30T07:16:20;18.66;74.58
69944;DHT22;57257;48.408;-4.498;2023-07-30T07:18:46;18.71;74.55
69944;DHT22;57257;48.408;-4.498;2023-07-30T07:21:14;18.73;75.01
69944;DHT22;57257;48.408;-4.498;2023-07-30T07:23:39;18.79;74.78
69944;DHT22;57257;48.408;-4.498;2023-07-30T07:26:04;18.86;74.96
69944;DHT22;57257;48.408;-4.498;2023-07-30T07:28:30;18.96;74.78
69944;DHT22;57257;48.408;-4.498;2023-07-30T07:30:55;18.95;74.79
69944;DHT22;57257;48.408;-4.498;2023-07-30T07:33:21;18.99;74.97
69944;DHT22;57257;48.408;-4.498;2023-07-30T07:35:47;19.03;74.86
69944;DHT22;57257;48.408;-4.498;2023-07-30T07:38:12;19.06;74.81
69944;DHT22;57257;48.408;-4.498;2023-07-30T07:40:38;19.12;74.89
69944;DHT22;57257;48.408;-4.498;2023-07-30T07:43:07;19.10;74.95
69944;DHT22;57257;48.408;-4.498;2023-07-30T07:45:33;19.17;74.97
69944;DHT22;57257;48.408;-4.498;2023-07-30T07:47:59;19.17;75.04
69944;DHT22;57257;48.408;-4.498;2023-07-30T07:50:24;19.14;75.02
69944;DHT22;57257;48.408;-4.498;2023-07-30T07:52:50;19.14;75.29
69944;DHT22;57257;48.408;-4.498;2023-07-30T07:55:16;19.20;75.07
69944;DHT22;57257;48.408;-4.498;2023-07-30T07:57:42;19.17;75.21
69944;DHT22;57257;48.408;-4.498;2023-07-30T08:00:07;19.19;75.24
69944;DHT22;57257;48.408;-4.498;2023-07-30T08:02:34;19.23;75.14
69944;DHT22;57257;48.408;-4.498;2023-07-30T08:05:00;19.28;74.98
69944;DHT22;57257;48.408;-4.498;2023-07-30T08:07:25;19.24;74.87
69944;DHT22;57257;48.408;-4.498;2023-07-30T08:09:50;19.28;74.88
69944;DHT22;57257;48.408;-4.498;2023-07-30T08:12:16;19.28;74.65
69944;DHT22;57257;48.408;-4.498;2023-07-30T08:14:42;19.28;74.77
69944;DHT22;57257;48.408;-4.498;2023-07-30T08:17:07;19.34;74.59
69944;DHT22;57257;48.408;-4.498;2023-07-30T08:19:33;19.34;74.61
69944;DHT22;57257;48.408;-4.498;2023-07-30T08:21:58;19.37;74.71
69944;DHT22;57257;48.408;-4.498;2023-07-30T08:24:24;19.44;74.78
69944;DHT22;57257;48.408;-4.498;2023-07-30T08:26:49;19.47;74.69
69944;DHT22;57257;48.408;-4.498;2023-07-30T08:29:15;19.56;74.56
69944;DHT22;57257;48.408;-4.498;2023-07-30T08:31:41;19.57;74.35
69944;DHT22;57257;48.408;-4.498;2023-07-30T08:34:07;19.63;74.21
69944;DHT22;57257;48.408;-4.498;2023-07-30T08:36:32;19.64;74.15
69944;DHT22;57257;48.408;-4.498;2023-07-30T08:38:58;19.66;74.18
69944;DHT22;57257;48.408;-4.498;2023-07-30T08:41:24;19.66;73.78
69944;DHT22;57257;48.408;-4.498;2023-07-30T08:43:49;19.61;73.65
69944;DHT22;57257;48.408;-4.498;2023-07-30T08:46:17;19.60;73.79
69944;DHT22;57257;48.408;-4.498;2023-07-30T08:48:42;19.57;73.76
69944;DHT22;57257;48.408;-4.498;2023-07-30T08:51:08;19.57;73.66
69944;DHT22;57257;48.408;-4.498;2023-07-30T08:53:33;19.56;73.66
69944;DHT22;57257;48.408;-4.498;2023-07-30T08:56:00;19.53;73.78
69944;DHT22;57257;48.408;-4.498;2023-07-30T08:58:27;19.56;73.92
69944;DHT22;57257;48.408;-4.498;2023-07-30T09:00:55;19.60;73.92
69944;DHT22;57257;48.408;-4.498;2023-07-30T09:03:23;19.63;73.80
69944;DHT22;57257;48.408;-4.498;2023-07-30T09:05:51;19.67;73.68
69944;DHT22;57257;48.408;-4.498;2023-07-30T09:08:17;19.70;73.67
69944;DHT22;57257;48.408;-4.498;2023-07-30T09:10:43;19.77;73.36
69944;DHT22;57257;48.408;-4.498;2023-07-30T09:13:08;19.74;73.32
69944;DHT22;57257;48.408;-4.498;2023-07-30T09:15:37;19.80;73.30
69944;DHT22;57257;48.408;-4.498;2023-07-30T09:18:04;19.77;73.12
69944;DHT22;57257;48.408;-4.498;2023-07-30T09:20:40;19.74;73.33
69944;DHT22;57257;48.408;-4.498;2023-07-30T09:23:06;19.77;73.22
69944;DHT22;57257;48.408;-4.498;2023-07-30T09:25:36;19.78;73.07
69944;DHT22;57257;48.408;-4.498;2023-07-30T09:28:01;19.81;72.98
69944;DHT22;57257;48.408;-4.498;2023-07-30T09:30:27;19.85;72.83
69944;DHT22;57257;48.408;-4.498;2023-07-30T09:32:55;19.88;72.45
69944;DHT22;57257;48.408;-4.498;2023-07-30T09:35:22;19.88;72.51
69944;DHT22;57257;48.408;-4.498;2023-07-30T09:37:50;19.87;72.55
69944;DHT22;57257;48.408;-4.498;2023-07-30T09:40:30;19.90;72.30
69944;DHT22;57257;48.408;-4.498;2023-07-30T09:42:57;19.91;72.25
69944;DHT22;57257;48.408;-4.498;2023-07-30T09:45:25;19.94;72.40
69944;DHT22;57257;48.408;-4.498;2023-07-30T09:47:52;20.01;72.28
69944;DHT22;57257;48.408;-4.498;2023-07-30T09:50:18;20.02;72.21
69944;DHT22;57257;48.408;-4.498;2023-07-30T09:52:43;20.04;72.17
69944;DHT22;57257;48.408;-4.498;2023-07-30T09:55:09;20.05;72.32
69944;DHT22;57257;48.408;-4.498;2023-07-30T09:57:36;20.07;72.00
69944;DHT22;57257;48.408;-4.498;2023-07-30T10:00:05;20.04;71.96
69944;DHT22;57257;48.408;-4.498;2023-07-30T10:02:37;20.04;71.92
69944;DHT22;57257;48.408;-4.498;2023-07-30T10:05:08;20.05;71.94
69944;DHT22;57257;48.408;-4.498;2023-07-30T10:07:35;20.05;71.67
69944;DHT22;57257;48.408;-4.498;2023-07-30T10:10:02;20.02;71.53
69944;DHT22;57257;48.408;-4.498;2023-07-30T10:12:31;20.02;71.61
69944;DHT22;57257;48.408;-4.498;2023-07-30T10:14:57;20.04;71.84
69944;DHT22;57257;48.408;-4.498;2023-07-30T10:17:23;20.08;71.92
69944;DHT22;57257;48.408;-4.498;2023-07-30T10:19:49;20.15;71.80
69944;DHT22;57257;48.408;-4.498;2023-07-30T10:25:00;20.21;71.65
69944;DHT22;57257;48.408;-4.498;2023-07-30T10:27:37;20.24;71.55
69944;DHT22;57257;48.408;-4.498;2023-07-30T10:30:14;20.25;71.55
69944;DHT22;57257;48.408;-4.498;2023-07-30T10:32:59;20.28;71.57
69944;DHT22;57257;48.408;-4.498;2023-07-30T10:35:45;20.26;71.68
69944;DHT22;57257;48.408;-4.498;2023-07-30T10:38:29;20.29;71.86
69944;DHT22;57257;48.408;-4.498;2023-07-30T10:41:14;20.35;71.51
69944;DHT22;57257;48.408;-4.498;2023-07-30T10:43:50;20.43;71.50
69944;DHT22;57257;48.408;-4.498;2023-07-30T10:46:18;20.56;71.18
69944;DHT22;57257;48.408;-4.498;2023-07-30T10:48:46;20.68;70.53
69944;DHT22;57257;48.408;-4.498;2023-07-30T10:51:14;20.76;70.25
69944;DHT22;57257;48.408;-4.498;2023-07-30T10:53:44;20.89;70.19
69944;DHT22;57257;48.408;-4.498;2023-07-30T10:56:10;21.14;70.15
69944;DHT22;57257;48.408;-4.498;2023-07-30T10:58:36;21.31;69.70
69944;DHT22;57257;48.408;-4.498;2023-07-30T11:01:03;21.44;69.40
69944;DHT22;57257;48.408;-4.498;2023-07-30T11:03:29;21.38;67.94
69944;DHT22;57257;48.408;-4.498;2023-07-30T11:05:55;21.33;67.31
69944;DHT22;57257;48.408;-4.498;2023-07-30T11:08:37;21.26;67.67
69944;DHT22;57257;48.408;-4.498;2023-07-30T11:11:04;21.30;67.81
69944;DHT22;57257;48.408;-4.498;2023-07-30T11:13:44;21.37;67.40
69944;DHT22;57257;48.408;-4.498;2023-07-30T11:16:14;21.43;66.83
69944;DHT22;57257;48.408;-4.498;2023-07-30T11:18:40;21.44;66.65
69944;DHT22;57257;48.408;-4.498;2023-07-30T11:21:07;21.44;66.26
69944;DHT22;57257;48.408;-4.498;2023-07-30T11:23:34;21.50;65.86
69944;DHT22;57257;48.408;-4.498;2023-07-30T11:26:05;21.46;65.33
69944;DHT22;57257;48.408;-4.498;2023-07-30T11:28:32;21.44;66.11
69944;DHT22;57257;48.408;-4.498;2023-07-30T11:31:06;21.57;66.27
69944;DHT22;57257;48.408;-4.498;2023-07-30T11:33:33;21.65;65.44
69944;DHT22;57257;48.408;-4.498;2023-07-30T11:36:01;21.64;65.68
69944;DHT22;57257;48.408;-4.498;2023-07-30T11:38:28;21.68;66.09
69944;DHT22;57257;48.408;-4.498;2023-07-30T11:40:54;21.74;66.04
69944;DHT22;57257;48.408;-4.498;2023-07-30T11:43:21;21.80;65.22
69944;DHT22;57257;48.408;-4.498;2023-07-30T11:45:47;21.80;65.28
69944;DHT22;57257;48.408;-4.498;2023-07-30T11:48:13;21.80;64.33
69944;DHT22;57257;48.408;-4.498;2023-07-30T11:50:52;21.74;64.60
69944;DHT22;57257;48.408;-4.498;2023-07-30T11:53:18;21.73;64.63
69944;DHT22;57257;48.408;-4.498;2023-07-30T11:55:44;21.73;64.38
69944;DHT22;57257;48.408;-4.498;2023-07-30T11:58:11;21.74;64.56
69944;DHT22;57257;48.408;-4.498;2023-07-30T12:00:41;21.75;63.75
69944;DHT22;57257;48.408;-4.498;2023-07-30T12:03:10;21.75;64.03
69944;DHT22;57257;48.408;-4.498;2023-07-30T12:05:37;21.84;64.05
69944;DHT22;57257;48.408;-4.498;2023-07-30T12:08:04;21.88;63.52
69944;DHT22;57257;48.408;-4.498;2023-07-30T12:10:46;22.05;63.66
69944;DHT22;57257;48.408;-4.498;2023-07-30T12:13:17;22.16;63.17
69944;DHT22;57257;48.408;-4.498;2023-07-30T12:15:57;22.18;62.98
69944;DHT22;57257;48.408;-4.498;2023-07-30T12:18:23;22.21;62.44
69944;DHT22;57257;48.408;-4.498;2023-07-30T12:20:49;22.19;62.35
69944;DHT22;57257;48.408;-4.498;2023-07-30T12:23:21;22.22;61.72
69944;DHT22;57257;48.408;-4.498;2023-07-30T12:25:46;22.26;62.15
69944;DHT22;57257;48.408;-4.498;2023-07-30T12:28:13;22.31;62.43
69944;DHT22;57257;48.408;-4.498;2023-07-30T12:30:38;22.42;61.94
69944;DHT22;57257;48.408;-4.498;2023-07-30T12:33:04;22.49;61.84
69944;DHT22;57257;48.408;-4.498;2023-07-30T12:35:31;22.52;61.78
69944;DHT22;57257;48.408;-4.498;2023-07-30T12:37:57;22.62;61.34
69944;DHT22;57257;48.408;-4.498;2023-07-30T12:40:23;22.69;61.35
69944;DHT22;57257;48.408;-4.498;2023-07-30T12:42:48;22.80;61.18
69944;DHT22;57257;48.408;-4.498;2023-07-30T12:45:13;22.87;60.63
69944;DHT22;57257;48.408;-4.498;2023-07-30T12:47:40;22.93;60.10
69944;DHT22;57257;48.408;-4.498;2023-07-30T12:50:05;22.96;59.62
69944;DHT22;57257;48.408;-4.498;2023-07-30T12:52:34;22.99;59.24
69944;DHT22;57257;48.408;-4.498;2023-07-30T12:55:01;22.95;58.32
69944;DHT22;57257;48.408;-4.498;2023-07-30T12:57:26;22.90;58.62
69944;DHT22;57257;48.408;-4.498;2023-07-30T12:59:51;22.95;59.25
69944;DHT22;57257;48.408;-4.498;2023-07-30T13:02:17;23.02;58.67
69944;DHT22;57257;48.408;-4.498;2023-07-30T13:04:42;22.92;58.02
69944;DHT22;57257;48.408;-4.498;2023-07-30T13:07:08;22.77;58.86
69944;DHT22;57257;48.408;-4.498;2023-07-30T13:09:33;22.77;59.73
69944;DHT22;57257;48.408;-4.498;2023-07-30T13:11:59;22.85;59.67
69944;DHT22;57257;48.408;-4.498;2023-07-30T13:14:24;22.82;60.08
69944;DHT22;57257;48.408;-4.498;2023-07-30T13:16:49;22.96;60.44
69944;DHT22;57257;48.408;-4.498;2023-07-30T13:19:15;23.16;60.07
69944;DHT22;57257;48.408;-4.498;2023-07-30T13:21:40;23.18;58.89
69944;DHT22;57257;48.408;-4.498;2023-07-30T13:24:06;23.14;58.70
69944;DHT22;57257;48.408;-4.498;2023-07-30T13:26:31;23.23;58.89
69944;DHT22;57257;48.408;-4.498;2023-07-30T13:28:57;23.28;58.62
69944;DHT22;57257;48.408;-4.498;2023-07-30T13:31:22;23.38;58.95
69944;DHT22;57257;48.408;-4.498;2023-07-30T13:33:47;23.41;58.70
69944;DHT22;57257;48.408;-4.498;2023-07-30T13:39:31;23.43;58.96
69944;DHT22;57257;48.408;-4.498;2023-07-30T13:41:56;23.54;59.00
69944;DHT22;57257;48.408;-4.498;2023-07-30T13:44:22;23.48;58.46
69944;DHT22;57257;48.408;-4.498;2023-07-30T13:46:47;23.60;58.76
69944;DHT22;57257;48.408;-4.498;2023-07-30T13:49:13;23.46;58.08
69944;DHT22;57257;48.408;-4.498;2023-07-30T13:51:39;23.40;59.09
69944;DHT22;57257;48.408;-4.498;2023-07-30T13:54:05;23.54;58.57
69944;DHT22;57257;48.408;-4.498;2023-07-30T13:56:33;23.58;57.60
69944;DHT22;57257;48.408;-4.498;2023-07-30T13:58:58;23.46;58.16
69944;DHT22;57257;48.408;-4.498;2023-07-30T14:01:24;23.50;58.95
69944;DHT22;57257;48.408;-4.498;2023-07-30T14:03:49;23.62;58.54
69944;DHT22;57257;48.408;-4.498;2023-07-30T14:06:15;23.53;58.69
69944;DHT22;57257;48.408;-4.498;2023-07-30T14:08:40;23.48;58.60
69944;DHT22;57257;48.408;-4.498;2023-07-30T14:11:05;23.38;58.50
69944;DHT22;57257;48.408;-4.498;2023-07-30T14:13:31;23.38;58.83
69944;DHT22;57257;48.408;-4.498;2023-07-30T14:15:56;23.21;58.65
69944;DHT22;57257;48.408;-4.498;2023-07-30T14:18:23;23.13;59.35
69944;DHT22;57257;48.408;-4.498;2023-07-30T14:20:49;23.10;58.97
69944;DHT22;57257;48.408;-4.498;2023-07-30T14:23:14;23.03;59.64
69944;DHT22;57257;48.408;-4.498;2023-07-30T14:25:40;23.03;59.41
69944;DHT22;57257;48.408;-4.498;2023-07-30T14:28:05;22.93;59.27
69944;DHT22;57257;48.408;-4.498;2023-07-30T14:30:30;22.82;59.48
69944;DHT22;57257;48.408;-4.498;2023-07-30T14:32:56;22.73;60.31
69944;DHT22;57257;48.408;-4.498;2023-07-30T14:35:22;22.73;60.62
69944;DHT22;57257;48.408;-4.498;2023-07-30T14:37:47;22.77;60.23
69944;DHT22;57257;48.408;-4.498;2023-07-30T14:40:14;22.87;60.82
69944;DHT22;57257;48.408;-4.498;2023-07-30T14:42:39;23.11;60.16
69944;DHT22;57257;48.408;-4.498;2023-07-30T14:45:06;23.16;59.17
69944;DHT22;57257;48.408;-4.498;2023-07-30T14:47:31;23.13;59.00
69944;DHT22;57257;48.408;-4.498;2023-07-30T14:49:58;23.06;58.99
69944;DHT22;57257;48.408;-4.498;2023-07-30T14:52:23;23.20;59.03
69944;DHT22;57257;48.408;-4.498;2023-07-30T14:54:48;23.33;58.97
69944;DHT22;57257;48.408;-4.498;2023-07-30T14:57:14;23.61;58.44
69944;DHT22;57257;48.408;-4.498;2023-07-30T14:59:39;23.72;58.01
69944;DHT22;57257;48.408;-4.498;2023-07-30T15:02:06;23.91;57.42
69944;DHT22;57257;48.408;-4.498;2023-07-30T15:04:31;23.95;56.62
69944;DHT22;57257;48.408;-4.498;2023-07-30T15:06:56;23.81;56.04
69944;DHT22;57257;48.408;-4.498;2023-07-30T15:09:22;23.57;56.15
69944;DHT22;57257;48.408;-4.498;2023-07-30T15:11:47;23.46;57.31
69944;DHT22;57257;48.408;-4.498;2023-07-30T15:14:13;23.53;57.27
69944;DHT22;57257;48.408;-4.498;2023-07-30T15:16:38;23.53;57.32
69944;DHT22;57257;48.408;-4.498;2023-07-30T15:19:03;23.51;57.35